createdAt,value
2017-04-05T00:00:44.386Z,0
2017-04-05T00:02:06.827Z,0
2017-04-05T00:03:28.657Z,0
2017-04-05T00:04:51.125Z,0
2017-04-05T00:06:13.313Z,0
2017-04-05T00:07:35.477Z,0
2017-04-05T00:08:57.286Z,0
2017-04-05T00:10:19.411Z,0
2017-04-05T00:11:41.564Z,0
2017-04-05T00:13:03.741Z,0
2017-04-05T00:14:25.918Z,0
2017-04-05T00:15:48.105Z,0
2017-04-05T00:17:10.247Z,0
2017-04-05T00:18:32.390Z,0
2017-04-05T00:19:54.518Z,0
2017-04-05T00:21:16.497Z,0
2017-04-05T00:22:38.680Z,0
2017-04-05T00:24:00.825Z,0
2017-04-05T00:25:23.278Z,0
2017-04-05T00:26:45.071Z,0
2017-04-05T00:28:07.220Z,0
2017-04-05T00:29:29.042Z,0
2017-04-05T00:30:50.898Z,0
2017-04-05T00:32:13.772Z,0
2017-04-05T00:33:35.691Z,0
2017-04-05T00:34:57.554Z,0
2017-04-05T00:36:19.061Z,0
2017-04-05T00:37:41.508Z,0
2017-04-05T00:39:03.333Z,0
2017-04-05T00:40:24.837Z,0
2017-04-05T00:41:46.653Z,0
2017-04-05T00:43:09.552Z,0
2017-04-05T00:44:31.390Z,0
2017-04-05T00:45:53.216Z,0
2017-04-05T00:47:15.358Z,0
2017-04-05T00:48:37.584Z,0
2017-04-05T00:49:59.729Z,0
2017-04-05T00:51:21.997Z,0
2017-04-05T00:52:44.118Z,0
2017-04-05T00:54:06.906Z,0
2017-04-05T00:55:28.734Z,0
2017-04-05T00:56:50.878Z,0
2017-04-05T00:58:12.380Z,0
2017-04-05T00:59:34.326Z,0
2017-04-05T01:00:56.500Z,0
2017-04-05T01:02:18.737Z,0
2017-04-05T01:03:40.539Z,0
2017-04-05T01:05:02.667Z,0
2017-04-05T01:06:23.845Z,0
2017-04-05T01:07:45.656Z,0
2017-04-05T01:09:07.138Z,0
2017-04-05T01:10:29.356Z,0
2017-04-05T01:11:51.631Z,0
2017-04-05T01:13:13.511Z,0
2017-04-05T01:14:35.637Z,0
2017-04-05T01:15:58.065Z,0
2017-04-05T01:17:19.697Z,0
2017-04-05T01:18:41.505Z,0
2017-04-05T01:20:03.642Z,0
2017-04-05T01:21:26.111Z,0
2017-04-05T01:22:48.605Z,0
2017-04-05T01:24:10.417Z,0
2017-04-05T01:25:32.876Z,0
2017-04-05T01:26:54.685Z,0
2017-04-05T01:28:16.635Z,0
2017-04-05T01:29:37.827Z,0
2017-04-05T01:30:59.970Z,0
2017-04-05T01:32:22.085Z,0
2017-04-05T01:33:43.910Z,0
2017-04-05T01:35:06.047Z,0
2017-04-05T01:36:28.187Z,0
2017-04-05T01:37:51.798Z,0
2017-04-05T01:39:13.942Z,0
2017-04-05T01:40:35.744Z,0
2017-04-05T01:41:57.885Z,0
2017-04-05T01:43:20.617Z,0
2017-04-05T01:44:43.083Z,0
2017-04-05T01:46:05.228Z,0
2017-04-05T01:47:27.713Z,0
2017-04-05T01:48:50.172Z,0
2017-04-05T01:50:12.633Z,0
2017-04-05T01:51:34.452Z,0
2017-04-05T01:52:56.569Z,0
2017-04-05T01:54:19.121Z,0
2017-04-05T01:55:40.658Z,0
2017-04-05T01:57:02.854Z,0
2017-04-05T01:58:25.017Z,0
2017-04-05T01:59:47.840Z,0
2017-04-05T02:01:10.045Z,0
2017-04-05T02:02:31.881Z,0
2017-04-05T02:03:53.387Z,0
2017-04-05T02:05:15.248Z,0
2017-04-05T02:06:37.094Z,0
2017-04-05T02:07:59.657Z,0
2017-04-05T02:09:21.161Z,0
2017-04-05T02:10:43.277Z,0
2017-04-05T02:12:05.505Z,0
2017-04-05T02:13:27.313Z,0
2017-04-05T02:14:49.422Z,0
2017-04-05T02:16:11.225Z,0
2017-04-05T02:17:33.168Z,0
2017-04-05T02:18:55.311Z,0
2017-04-05T02:20:16.937Z,0
2017-04-05T02:21:39.387Z,0
2017-04-05T02:23:01.837Z,0
2017-04-05T02:24:24.290Z,0
2017-04-05T02:25:46.291Z,0
2017-04-05T02:27:08.409Z,0
2017-04-05T02:28:30.546Z,0
2017-04-05T02:29:52.044Z,0
2017-04-05T02:31:13.885Z,0
2017-04-05T02:32:36.256Z,0
2017-04-05T02:33:57.744Z,0
2017-04-05T02:35:19.887Z,0
2017-04-05T02:36:41.395Z,0
2017-04-05T02:38:04.316Z,0
2017-04-05T02:39:26.156Z,0
2017-04-05T02:40:47.968Z,0
2017-04-05T02:42:09.481Z,0
2017-04-05T02:43:31.970Z,0
2017-04-05T02:44:53.470Z,0
2017-04-05T02:46:15.596Z,0
2017-04-05T02:47:37.729Z,0
2017-04-05T02:48:59.555Z,0
2017-04-05T02:50:21.146Z,0
2017-04-05T02:51:42.961Z,0
2017-04-05T02:53:04.790Z,0
2017-04-05T02:54:26.956Z,0
2017-04-05T02:55:49.406Z,0
2017-04-05T02:57:11.226Z,0
2017-04-05T02:58:33.425Z,0
2017-04-05T02:59:56.227Z,0
2017-04-05T03:01:18.380Z,0
2017-04-05T03:02:39.867Z,0
2017-04-05T03:04:01.998Z,0
2017-04-05T03:05:23.533Z,0
2017-04-05T03:06:45.694Z,0
2017-04-05T03:08:07.526Z,0
2017-04-05T03:09:29.576Z,0
2017-04-05T03:10:52.386Z,0
2017-04-05T03:12:14.195Z,0
2017-04-05T03:13:36.322Z,0
2017-04-05T03:14:57.879Z,0
2017-04-05T03:16:19.821Z,0
2017-04-05T03:17:41.762Z,0
2017-04-05T03:19:03.679Z,0
2017-04-05T03:20:25.499Z,0
2017-04-05T03:21:47.008Z,0
2017-04-05T03:23:09.143Z,0
2017-04-05T03:24:31.295Z,0
2017-04-05T03:25:53.416Z,0
2017-04-05T03:27:15.946Z,0
2017-04-05T03:28:37.766Z,0
2017-04-05T03:29:58.945Z,0
2017-04-05T03:31:20.866Z,0
2017-04-05T03:32:43.036Z,0
2017-04-05T03:34:04.519Z,0
2017-04-05T03:35:26.677Z,0
2017-04-05T03:36:48.500Z,0
2017-04-05T03:38:10.326Z,0
2017-04-05T03:39:31.845Z,0
2017-04-05T03:40:53.356Z,0
2017-04-05T03:42:15.716Z,0
2017-04-05T03:43:38.330Z,0
2017-04-05T03:45:00.496Z,0
2017-04-05T03:46:22.320Z,0
2017-04-05T03:47:44.129Z,0
2017-04-05T03:49:06.626Z,0
2017-04-05T03:50:28.795Z,0
2017-04-05T03:51:50.290Z,0
2017-04-05T03:53:12.425Z,0
2017-04-05T03:54:34.535Z,0
2017-04-05T03:55:56.995Z,0
2017-04-05T03:57:18.236Z,0
2017-04-05T03:58:40.709Z,0
2017-04-05T04:00:02.235Z,0
2017-04-05T04:01:24.357Z,0
2017-04-05T04:02:46.197Z,0
2017-04-05T04:04:08.024Z,0
2017-04-05T04:05:30.507Z,0
2017-04-05T04:06:52.329Z,0
2017-04-05T04:08:13.910Z,0
2017-04-05T04:09:35.849Z,0
2017-04-05T04:10:57.382Z,4
2017-04-05T04:12:19.547Z,0
2017-04-05T04:13:41.986Z,4
2017-04-05T04:15:03.792Z,0
2017-04-05T04:16:25.907Z,4
2017-04-05T04:17:48.430Z,4
2017-04-05T04:19:10.007Z,8
2017-04-05T04:20:31.803Z,8
2017-04-05T04:21:54.589Z,8
2017-04-05T04:23:16.393Z,12
2017-04-05T04:24:38.231Z,16
2017-04-05T04:25:59.735Z,20
2017-04-05T04:27:22.517Z,24
2017-04-05T04:28:44.026Z,28
2017-04-05T04:30:06.227Z,36
2017-04-05T04:31:28.049Z,44
2017-04-05T04:32:50.587Z,52
2017-04-05T04:34:12.097Z,64
2017-04-05T04:35:34.573Z,80
2017-04-05T04:36:56.386Z,96
2017-04-05T04:38:18.860Z,116
2017-04-05T04:39:41.301Z,136
2017-04-05T04:41:03.168Z,152
2017-04-05T04:42:25.007Z,172
2017-04-05T04:43:46.515Z,200
2017-04-05T04:45:08.961Z,232
2017-04-05T04:46:30.784Z,264
2017-04-05T04:47:52.631Z,300
2017-04-05T04:49:15.368Z,332
2017-04-05T04:50:37.171Z,372
2017-04-05T04:51:59.341Z,416
2017-04-05T04:53:21.479Z,468
2017-04-05T04:54:44.366Z,528
2017-04-05T04:56:06.507Z,584
2017-04-05T04:57:28.116Z,640
2017-04-05T04:58:49.606Z,672
2017-04-05T05:00:11.088Z,644
2017-04-05T05:01:33.238Z,592
2017-04-05T05:02:54.757Z,556
2017-04-05T05:04:16.272Z,556
2017-04-05T05:05:37.806Z,560
2017-04-05T05:06:59.623Z,516
2017-04-05T05:08:21.439Z,484
2017-04-05T05:09:43.587Z,480
2017-04-05T05:11:05.117Z,480
2017-04-05T05:12:27.584Z,480
2017-04-05T05:13:49.564Z,484
2017-04-05T05:15:12.188Z,472
2017-04-05T05:16:34.698Z,456
2017-04-05T05:17:56.257Z,480
2017-04-05T05:19:18.076Z,476
2017-04-05T05:20:40.224Z,496
2017-04-05T05:22:02.852Z,536
2017-04-05T05:23:24.698Z,576
2017-04-05T05:24:46.886Z,600
2017-04-05T05:26:09.050Z,604
2017-04-05T05:27:31.332Z,620
2017-04-05T05:28:53.266Z,596
2017-04-05T05:30:15.377Z,556
2017-04-05T05:31:36.915Z,620
2017-04-05T05:32:58.216Z,660
2017-04-05T05:34:20.468Z,612
2017-04-05T05:35:42.618Z,664
2017-04-05T05:37:04.784Z,688
2017-04-05T05:38:26.951Z,700
2017-04-05T05:39:49.159Z,708
2017-04-05T05:41:11.319Z,800
2017-04-05T05:42:33.159Z,864
2017-04-05T05:43:55.339Z,892
2017-04-05T05:45:17.476Z,884
2017-04-05T05:46:39.214Z,940
2017-04-05T05:48:01.652Z,980
2017-04-05T05:49:23.561Z,1116
2017-04-05T05:50:45.487Z,1244
2017-04-05T05:52:07.383Z,1372
2017-04-05T05:53:28.617Z,1432
2017-04-05T05:54:50.739Z,1512
2017-04-05T05:56:12.548Z,1448
2017-04-05T05:57:34.691Z,1648
2017-04-05T05:58:56.202Z,1860
2017-04-05T06:00:18.365Z,1768
2017-04-05T06:01:40.967Z,1600
2017-04-05T06:03:03.116Z,1480
2017-04-05T06:04:25.364Z,1576
2017-04-05T06:05:47.566Z,1856
2017-04-05T06:07:09.501Z,2076
2017-04-05T06:08:31.576Z,1812
2017-04-05T06:09:53.711Z,1688
2017-04-05T06:11:16.164Z,1800
2017-04-05T06:12:37.666Z,1948
2017-04-05T06:13:59.502Z,2320
2017-04-05T06:15:21.468Z,2544
2017-04-05T06:16:43.608Z,2432
2017-04-05T06:18:05.720Z,2488
2017-04-05T06:19:28.178Z,2172
2017-04-05T06:20:50.006Z,1744
2017-04-05T06:22:12.172Z,1496
2017-04-05T06:23:34.067Z,1360
2017-04-05T06:24:55.897Z,1444
2017-04-05T06:26:17.096Z,1648
2017-04-05T06:27:39.604Z,1884
2017-04-05T06:29:01.440Z,2096
2017-04-05T06:30:23.572Z,1928
2017-04-05T06:31:46.022Z,2404
2017-04-05T06:33:07.841Z,3104
2017-04-05T06:34:30.083Z,3116
2017-04-05T06:35:51.929Z,3016
2017-04-05T06:37:13.758Z,2700
2017-04-05T06:38:35.907Z,2316
2017-04-05T06:39:58.053Z,2188
2017-04-05T06:41:19.540Z,2756
2017-04-05T06:42:41.994Z,2736
2017-04-05T06:44:04.280Z,2372
2017-04-05T06:45:26.758Z,1984
2017-04-05T06:46:48.318Z,1776
2017-04-05T06:48:10.144Z,1620
2017-04-05T06:49:31.956Z,1504
2017-04-05T06:50:53.850Z,1500
2017-04-05T06:52:16.107Z,1504
2017-04-05T06:53:38.260Z,1460
2017-04-05T06:55:00.708Z,1540
2017-04-05T06:56:22.870Z,1844
2017-04-05T06:57:44.720Z,2372
2017-04-05T06:59:06.918Z,3052
2017-04-05T07:00:29.064Z,3960
2017-04-05T07:01:50.266Z,5304
2017-04-05T07:03:12.486Z,6628
2017-04-05T07:04:34.314Z,7812
2017-04-05T07:05:56.425Z,9452
2017-04-05T07:07:18.545Z,10700
2017-04-05T07:08:40.375Z,10872
2017-04-05T07:10:01.884Z,11444
2017-04-05T07:11:24.353Z,11468
2017-04-05T07:12:46.547Z,10700
2017-04-05T07:14:08.053Z,9708
2017-04-05T07:15:30.183Z,8768
2017-04-05T07:16:51.984Z,8464
2017-04-05T07:18:13.187Z,9052
2017-04-05T07:19:35.434Z,10136
2017-04-05T07:20:57.520Z,12528
2017-04-05T07:22:19.747Z,15232
2017-04-05T07:23:41.268Z,17664
2017-04-05T07:25:02.862Z,16704
2017-04-05T07:26:24.474Z,14324
2017-04-05T07:27:46.616Z,12068
2017-04-05T07:29:08.771Z,10164
2017-04-05T07:30:30.388Z,8920
2017-04-05T07:31:51.586Z,9048
2017-04-05T07:33:14.064Z,9212
2017-04-05T07:34:35.896Z,9004
2017-04-05T07:35:58.068Z,9084
2017-04-05T07:37:20.093Z,9580
2017-04-05T07:38:42.268Z,11024
2017-04-05T07:40:04.094Z,12176
2017-04-05T07:41:25.947Z,12856
2017-04-05T07:42:47.471Z,13272
2017-04-05T07:44:09.928Z,13816
2017-04-05T07:45:32.066Z,14572
2017-04-05T07:46:54.618Z,17088
2017-04-05T07:48:16.461Z,17216
2017-04-05T07:49:38.970Z,17088
2017-04-05T07:51:00.838Z,15568
2017-04-05T07:52:22.667Z,14396
2017-04-05T07:53:44.828Z,14684
2017-04-05T07:55:07.282Z,16704
2017-04-05T07:56:29.139Z,18016
2017-04-05T07:57:51.668Z,16992
2017-04-05T07:59:13.208Z,15468
2017-04-05T08:00:35.329Z,15216
2017-04-05T08:01:57.499Z,15512
2017-04-05T08:03:19.678Z,15676
2017-04-05T08:04:41.516Z,15708
2017-04-05T08:06:03.979Z,15036
2017-04-05T08:07:25.197Z,14368
2017-04-05T08:08:47.478Z,13704
2017-04-05T08:10:09.641Z,13332
2017-04-05T08:11:32.118Z,12984
2017-04-05T08:12:53.624Z,12780
2017-04-05T08:14:15.141Z,12652
2017-04-05T08:15:36.664Z,12840
2017-04-05T08:16:59.135Z,12788
2017-04-05T08:18:20.976Z,12560
2017-04-05T08:19:43.153Z,12248
2017-04-05T08:21:04.377Z,11800
2017-04-05T08:22:26.896Z,11396
2017-04-05T08:23:49.363Z,11148
2017-04-05T08:25:11.549Z,10872
2017-04-05T08:26:33.723Z,11072
2017-04-05T08:27:55.876Z,11232
2017-04-05T08:29:18.017Z,11192
2017-04-05T08:30:39.520Z,11580
2017-04-05T08:32:01.359Z,11480
2017-04-05T08:33:23.501Z,11304
2017-04-05T08:34:45.859Z,11520
2017-04-05T08:36:08.326Z,12428
2017-04-05T08:37:30.527Z,10920
2017-04-05T08:38:53.074Z,9672
2017-04-05T08:40:15.576Z,9556
2017-04-05T08:41:38.174Z,9512
2017-04-05T08:43:00.019Z,9500
2017-04-05T08:44:22.855Z,9720
2017-04-05T08:45:45.066Z,9472
2017-04-05T08:47:06.271Z,9492
2017-04-05T08:48:28.291Z,9516
2017-04-05T08:49:50.570Z,9808
2017-04-05T08:51:12.722Z,10076
2017-04-05T08:52:34.234Z,10436
2017-04-05T08:53:56.077Z,10632
2017-04-05T08:55:18.855Z,11900
2017-04-05T08:56:40.705Z,11272
2017-04-05T08:58:02.216Z,11296
2017-04-05T08:59:23.781Z,11424
2017-04-05T09:00:45.918Z,11596
2017-04-05T09:02:08.462Z,12384
2017-04-05T09:03:29.977Z,13960
2017-04-05T09:04:52.137Z,17184
2017-04-05T09:06:14.312Z,17184
2017-04-05T09:07:36.568Z,13304
2017-04-05T09:08:58.713Z,11976
2017-04-05T09:10:20.532Z,13320
2017-04-05T09:11:43.005Z,13272
2017-04-05T09:13:04.848Z,13616
2017-04-05T09:14:26.696Z,15420
2017-04-05T09:15:48.274Z,16024
2017-04-05T09:17:10.735Z,17664
2017-04-05T09:18:33.202Z,17472
2017-04-05T09:19:55.054Z,17216
2017-04-05T09:21:17.594Z,17088
2017-04-05T09:22:40.119Z,17088
2017-04-05T09:24:02.586Z,18496
2017-04-05T09:25:24.418Z,18528
2017-04-05T09:26:46.892Z,16800
2017-04-05T09:28:09.447Z,13884
2017-04-05T09:29:31.605Z,14404
2017-04-05T09:30:54.068Z,13536
2017-04-05T09:32:16.277Z,11464
2017-04-05T09:33:38.370Z,11744
2017-04-05T09:35:00.576Z,13488
2017-04-05T09:36:22.420Z,13728
2017-04-05T09:37:44.256Z,14680
2017-04-05T09:39:06.398Z,17280
2017-04-05T09:40:28.619Z,19264
2017-04-05T09:41:50.475Z,20000
2017-04-05T09:43:11.985Z,18784
2017-04-05T09:44:34.129Z,20864
2017-04-05T09:45:56.605Z,20896
2017-04-05T09:47:19.179Z,20736
2017-04-05T09:48:41.326Z,20896
2017-04-05T09:50:03.198Z,19040
2017-04-05T09:51:25.079Z,18208
2017-04-05T09:52:47.689Z,17664
2017-04-05T09:54:09.838Z,19264
2017-04-05T09:55:32.404Z,20384
2017-04-05T09:56:53.928Z,19872
2017-04-05T09:58:15.762Z,18304
2017-04-05T09:59:37.686Z,17600
2017-04-05T10:00:59.514Z,16768
2017-04-05T10:02:21.687Z,15588
2017-04-05T10:03:43.619Z,14840
2017-04-05T10:05:04.504Z,15212
2017-04-05T10:06:27.066Z,13960
2017-04-05T10:07:48.893Z,12360
2017-04-05T10:09:10.557Z,12204
2017-04-05T10:10:32.110Z,14732
2017-04-05T10:11:54.375Z,15804
2017-04-05T10:13:16.263Z,15288
2017-04-05T10:14:38.095Z,14544
2017-04-05T10:16:00.564Z,14240
2017-04-05T10:17:23.345Z,11456
2017-04-05T10:18:45.528Z,10188
2017-04-05T10:20:07.697Z,9892
2017-04-05T10:21:30.193Z,10400
2017-04-05T10:22:52.408Z,13032
2017-04-05T10:24:13.980Z,16736
2017-04-05T10:25:36.630Z,17376
2017-04-05T10:26:58.914Z,16736
2017-04-05T10:28:21.058Z,17728
2017-04-05T10:29:42.920Z,18944
2017-04-05T10:31:05.405Z,21152
2017-04-05T10:32:27.247Z,23296
2017-04-05T10:33:49.075Z,23360
2017-04-05T10:35:11.343Z,22176
2017-04-05T10:36:33.518Z,20384
2017-04-05T10:37:55.365Z,18656
2017-04-05T10:39:17.827Z,18048
2017-04-05T10:40:39.664Z,19168
2017-04-05T10:42:01.174Z,19488
2017-04-05T10:43:23.396Z,18496
2017-04-05T10:44:45.858Z,17472
2017-04-05T10:46:07.736Z,16448
2017-04-05T10:47:29.961Z,13644
2017-04-05T10:48:52.252Z,11580
2017-04-05T10:50:14.565Z,10772
2017-04-05T10:51:36.486Z,12920
2017-04-05T10:52:58.026Z,16864
2017-04-05T10:54:20.163Z,17792
2017-04-05T10:55:42.244Z,15720
2017-04-05T10:57:04.094Z,14148
2017-04-05T10:58:25.935Z,13908
2017-04-05T10:59:47.470Z,13860
2017-04-05T11:01:09.955Z,13728
2017-04-05T11:02:31.544Z,13700
2017-04-05T11:03:53.394Z,13324
2017-04-05T11:05:15.238Z,12484
2017-04-05T11:06:37.415Z,13464
2017-04-05T11:07:59.253Z,15424
2017-04-05T11:09:20.754Z,16544
2017-04-05T11:10:42.277Z,17472
2017-04-05T11:12:04.414Z,17120
2017-04-05T11:13:26.301Z,14468
2017-04-05T11:14:48.178Z,11428
2017-04-05T11:16:10.027Z,10544
2017-04-05T11:17:32.424Z,11012
2017-04-05T11:18:54.673Z,11644
2017-04-05T11:20:16.296Z,13120
2017-04-05T11:21:38.494Z,13720
2017-04-05T11:23:01.247Z,14856
2017-04-05T11:24:23.847Z,15544
2017-04-05T11:25:45.985Z,15200
2017-04-05T11:27:07.801Z,14920
2017-04-05T11:28:30.335Z,15940
2017-04-05T11:29:51.874Z,17760
2017-04-05T11:31:14.001Z,18688
2017-04-05T11:32:36.272Z,17856
2017-04-05T11:33:58.803Z,15824
2017-04-05T11:35:20.676Z,15052
2017-04-05T11:36:42.812Z,16800
2017-04-05T11:38:04.667Z,19456
2017-04-05T11:39:27.424Z,20928
2017-04-05T11:40:49.262Z,20928
2017-04-05T11:42:10.803Z,20224
2017-04-05T11:43:33.001Z,17760
2017-04-05T11:44:55.506Z,13868
2017-04-05T11:46:17.347Z,11084
2017-04-05T11:47:39.182Z,9964
2017-04-05T11:49:01.026Z,10088
2017-04-05T11:50:23.206Z,10872
2017-04-05T11:51:45.102Z,11268
2017-04-05T11:53:07.020Z,11824
2017-04-05T11:54:28.527Z,13376
2017-04-05T11:55:51.286Z,14664
2017-04-05T11:57:13.166Z,13568
2017-04-05T11:58:34.989Z,11088
2017-04-05T11:59:56.857Z,9620
2017-04-05T12:01:19.142Z,7932
2017-04-05T12:02:41.698Z,8428
2017-04-05T12:04:03.702Z,8820
2017-04-05T12:05:25.525Z,8208
2017-04-05T12:06:47.436Z,7488
2017-04-05T12:08:09.918Z,7064
2017-04-05T12:09:32.188Z,7008
2017-04-05T12:10:54.015Z,6564
2017-04-05T12:12:15.923Z,6556
2017-04-05T12:13:37.445Z,7192
2017-04-05T12:14:59.597Z,8564
2017-04-05T12:16:21.768Z,9404
2017-04-05T12:17:44.367Z,9860
2017-04-05T12:19:06.235Z,10012
2017-04-05T12:20:28.499Z,9824
2017-04-05T12:21:50.657Z,9380
2017-04-05T12:23:12.476Z,8764
2017-04-05T12:24:34.315Z,7876
2017-04-05T12:25:56.159Z,7184
2017-04-05T12:27:18.684Z,6852
2017-04-05T12:28:41.161Z,6684
2017-04-05T12:30:03.004Z,6248
2017-04-05T12:31:24.526Z,5664
2017-04-05T12:32:46.708Z,5172
2017-04-05T12:34:09.541Z,5024
2017-04-05T12:35:31.516Z,5608
2017-04-05T12:36:53.420Z,6068
2017-04-05T12:38:14.946Z,6048
2017-04-05T12:39:37.714Z,6392
2017-04-05T12:40:59.918Z,6956
2017-04-05T12:42:22.197Z,7144
2017-04-05T12:45:04.660Z,7904
2017-04-05T12:46:26.833Z,7900
2017-04-05T12:47:48.985Z,8524
2017-04-05T12:49:10.876Z,9224
2017-04-05T12:50:33.358Z,9508
2017-04-05T12:51:55.926Z,10112
2017-04-05T12:53:18.155Z,11476
2017-04-05T12:54:39.978Z,13072
2017-04-05T12:56:02.747Z,14272
2017-04-05T12:57:24.578Z,15436
2017-04-05T12:58:46.927Z,15588
2017-04-05T13:00:08.759Z,15112
2017-04-05T13:01:31.021Z,14844
2017-04-05T13:02:53.498Z,14756
2017-04-05T13:04:15.396Z,14580
2017-04-05T13:05:37.525Z,14040
2017-04-05T13:06:59.987Z,13152
2017-04-05T13:08:22.143Z,11824
2017-04-05T13:09:44.295Z,11236
2017-04-05T13:11:06.456Z,11916
2017-04-05T13:12:29.280Z,12516
2017-04-05T13:13:51.183Z,12532
2017-04-05T13:15:13.739Z,12076
2017-04-05T13:16:36.047Z,12220
2017-04-05T13:17:58.246Z,13088
2017-04-05T13:19:19.755Z,13856
2017-04-05T13:20:41.902Z,14656
2017-04-05T13:22:04.128Z,14492
2017-04-05T13:23:26.029Z,13644
2017-04-05T13:24:48.339Z,12700
2017-04-05T13:26:10.225Z,12076
2017-04-05T13:27:32.267Z,11872
2017-04-05T13:28:55.118Z,11892
2017-04-05T13:30:17.243Z,12880
2017-04-05T13:31:38.771Z,13392
2017-04-05T13:33:00.934Z,11320
2017-04-05T13:34:23.406Z,9916
2017-04-05T13:35:45.885Z,9928
2017-04-05T13:37:08.384Z,9684
2017-04-05T13:38:30.563Z,9028
2017-04-05T13:39:53.450Z,7608
2017-04-05T13:41:15.656Z,7380
2017-04-05T13:42:38.128Z,8364
2017-04-05T13:44:00.614Z,10156
2017-04-05T13:45:23.196Z,9924
2017-04-05T13:46:45.170Z,8236
2017-04-05T13:48:06.686Z,7716
2017-04-05T13:49:28.213Z,8876
2017-04-05T13:50:50.465Z,9584
2017-04-05T13:52:12.354Z,8928
2017-04-05T13:53:34.950Z,8796
2017-04-05T13:54:57.390Z,9476
2017-04-05T13:56:20.325Z,10352
2017-04-05T13:57:42.483Z,11500
2017-04-05T13:59:04.717Z,12384
2017-04-05T14:00:26.878Z,13352
2017-04-05T14:01:49.348Z,14032
2017-04-05T14:03:11.503Z,13376
2017-04-05T14:04:33.370Z,11144
2017-04-05T14:05:55.537Z,9012
2017-04-05T14:07:18.016Z,8084
2017-04-05T14:08:40.172Z,7580
2017-04-05T14:10:02.338Z,7572
2017-04-05T14:11:24.844Z,7380
2017-04-05T14:12:46.677Z,6808
2017-04-05T14:14:09.130Z,5892
2017-04-05T14:15:31.723Z,5240
2017-04-05T14:16:53.866Z,5020
2017-04-05T14:18:16.075Z,5432
2017-04-05T14:19:38.317Z,5300
2017-04-05T14:21:00.156Z,6228
2017-04-05T14:22:22.636Z,6848
2017-04-05T14:23:45.149Z,7160
2017-04-05T14:25:07.289Z,7276
2017-04-05T14:26:29.301Z,8124
2017-04-05T14:27:51.452Z,8212
2017-04-05T14:29:13.651Z,7760
2017-04-05T14:30:36.135Z,8712
2017-04-05T14:31:58.275Z,9400
2017-04-05T14:33:19.800Z,8976
2017-04-05T14:34:42.052Z,8912
2017-04-05T14:36:04.269Z,8524
2017-04-05T14:37:26.272Z,7612
2017-04-05T14:38:48.764Z,7236
2017-04-05T14:40:11.283Z,7940
2017-04-05T14:41:33.104Z,8880
2017-04-05T14:42:54.685Z,7368
2017-04-05T14:44:16.864Z,6364
2017-04-05T14:45:39.340Z,8196
2017-04-05T14:47:01.644Z,8864
2017-04-05T14:48:23.806Z,8076
2017-04-05T14:49:46.270Z,7916
2017-04-05T14:51:08.545Z,7376
2017-04-05T14:52:30.087Z,6940
2017-04-05T14:53:52.619Z,6908
2017-04-05T14:55:14.441Z,7704
2017-04-05T14:56:36.880Z,8272
2017-04-05T14:57:58.505Z,9292
2017-04-05T14:59:20.796Z,11416
2017-04-05T15:00:43.290Z,13344
2017-04-05T15:02:05.764Z,14752
2017-04-05T15:03:27.802Z,15668
2017-04-05T15:04:49.966Z,15148
2017-04-05T15:06:12.446Z,12100
2017-04-05T15:07:35.252Z,9436
2017-04-05T15:08:57.854Z,9152
2017-04-05T15:10:19.698Z,10104
2017-04-05T15:11:41.886Z,10920
2017-04-05T15:13:04.545Z,9908
2017-04-05T15:14:26.405Z,9536
2017-04-05T15:15:48.611Z,9600
2017-04-05T15:17:10.141Z,9924
2017-04-05T15:18:32.665Z,11084
2017-04-05T15:19:54.861Z,11300
2017-04-05T15:21:17.369Z,11240
2017-04-05T15:22:39.541Z,10508
2017-04-05T15:24:02.341Z,9312
2017-04-05T15:25:23.918Z,8144
2017-04-05T15:26:46.064Z,8836
2017-04-05T15:28:08.542Z,10148
2017-04-05T15:29:30.848Z,7964
2017-04-05T15:30:52.704Z,5708
2017-04-05T15:32:14.875Z,5264
2017-04-05T15:33:37.053Z,5900
2017-04-05T15:34:59.545Z,7028
2017-04-05T15:36:21.695Z,7752
2017-04-05T15:37:42.893Z,6876
2017-04-05T15:39:05.039Z,6596
2017-04-05T15:40:27.566Z,7668
2017-04-05T15:41:49.752Z,8536
2017-04-05T15:43:12.135Z,6792
2017-04-05T15:44:33.973Z,5264
2017-04-05T15:45:56.351Z,6036
2017-04-05T15:47:17.885Z,5948
2017-04-05T15:48:40.039Z,5724
2017-04-05T15:50:01.641Z,5544
2017-04-05T15:51:23.807Z,5544
2017-04-05T15:52:45.744Z,5076
2017-04-05T15:54:08.015Z,5756
2017-04-05T15:55:29.873Z,6388
2017-04-05T15:56:52.046Z,6832
2017-04-05T15:58:14.241Z,7156
2017-04-05T15:59:36.417Z,7032
2017-04-05T16:00:58.631Z,6360
2017-04-05T16:02:20.805Z,5608
2017-04-05T16:03:42.658Z,4952
2017-04-05T16:05:04.803Z,4824
2017-04-05T16:06:26.746Z,4932
2017-04-05T16:07:49.248Z,5012
2017-04-05T16:09:10.790Z,5108
2017-04-05T16:10:33.017Z,4776
2017-04-05T16:11:54.871Z,4828
2017-04-05T16:13:17.729Z,4680
2017-04-05T16:14:39.655Z,4452
2017-04-05T16:16:01.617Z,4844
2017-04-05T16:17:24.127Z,4496
2017-04-05T16:18:46.383Z,4768
2017-04-05T16:20:07.978Z,5844
2017-04-05T16:21:30.308Z,6148
2017-04-05T16:22:51.985Z,6284
2017-04-05T16:24:14.647Z,6372
2017-04-05T16:25:37.035Z,6812
2017-04-05T16:26:58.881Z,7796
2017-04-05T16:28:21.117Z,6280
2017-04-05T16:29:43.878Z,6200
2017-04-05T16:31:06.136Z,6792
2017-04-05T16:32:28.406Z,7560
2017-04-05T16:33:49.915Z,9164
2017-04-05T16:35:12.426Z,9760
2017-04-05T16:36:34.268Z,8364
2017-04-05T16:37:56.109Z,5828
2017-04-05T16:39:18.246Z,4836
2017-04-05T16:40:41.038Z,4556
2017-04-05T16:42:03.206Z,5204
2017-04-05T16:43:25.389Z,6452
2017-04-05T16:44:47.539Z,6552
2017-04-05T16:46:10.296Z,6388
2017-04-05T16:47:32.787Z,6236
2017-04-05T16:48:55.249Z,6320
2017-04-05T16:50:17.150Z,6704
2017-04-05T16:51:39.897Z,7444
2017-04-05T16:53:02.541Z,7132
2017-04-05T16:54:24.698Z,6032
2017-04-05T16:55:46.855Z,5572
2017-04-05T16:57:09.686Z,5532
2017-04-05T16:58:32.258Z,5088
2017-04-05T16:59:54.486Z,4104
2017-04-05T17:01:16.326Z,3240
2017-04-05T17:02:38.866Z,2924
2017-04-05T17:04:01.046Z,2716
2017-04-05T17:05:23.237Z,2636
2017-04-05T17:06:45.744Z,2816
2017-04-05T17:08:08.453Z,3504
2017-04-05T17:09:30.636Z,4292
2017-04-05T17:10:53.147Z,4344
2017-04-05T17:12:15.741Z,4128
2017-04-05T17:13:38.706Z,3584
2017-04-05T17:15:00.886Z,3792
2017-04-05T17:16:22.883Z,3192
2017-04-05T17:17:45.120Z,2596
2017-04-05T17:19:07.947Z,2412
2017-04-05T17:20:29.905Z,2420
2017-04-05T17:21:52.168Z,2252
2017-04-05T17:23:14.428Z,2252
2017-04-05T17:24:37.020Z,1940
2017-04-05T17:25:58.884Z,1744
2017-04-05T17:27:20.437Z,1688
2017-04-05T17:28:42.636Z,1648
2017-04-05T17:30:05.445Z,1624
2017-04-05T17:31:27.948Z,1540
2017-04-05T17:32:50.457Z,1532
2017-04-05T17:34:12.546Z,1460
2017-04-05T17:35:35.402Z,1280
2017-04-05T17:36:57.999Z,1192
2017-04-05T17:38:20.487Z,1164
2017-04-05T17:39:42.696Z,1164
2017-04-05T17:41:05.681Z,1008
2017-04-05T17:42:28.199Z,908
2017-04-05T17:43:50.333Z,828
2017-04-05T17:45:12.198Z,696
2017-04-05T17:46:34.968Z,564
2017-04-05T17:47:57.568Z,612
2017-04-05T17:49:19.752Z,692
2017-04-05T17:50:42.238Z,628
2017-04-05T17:52:05.004Z,572
2017-04-05T17:53:26.859Z,468
2017-04-05T17:54:49.527Z,400
2017-04-05T17:56:12.037Z,400
2017-04-05T17:57:34.945Z,416
2017-04-05T17:58:57.225Z,372
2017-04-05T18:00:19.484Z,336
2017-04-05T18:01:41.644Z,328
2017-04-05T18:03:04.211Z,336
2017-04-05T18:04:26.385Z,316
2017-04-05T18:05:48.972Z,284
2017-04-05T18:07:10.195Z,252
2017-04-05T18:08:32.466Z,220
2017-04-05T18:09:54.336Z,188
2017-04-05T18:11:16.544Z,164
2017-04-05T18:12:38.419Z,136
2017-04-05T18:14:01.025Z,120
2017-04-05T18:15:23.206Z,96
2017-04-05T18:16:45.395Z,80
2017-04-05T18:18:07.914Z,68
2017-04-05T18:19:30.477Z,52
2017-04-05T18:20:53.110Z,40
2017-04-05T18:22:15.674Z,36
2017-04-05T18:23:37.214Z,28
2017-04-05T18:24:59.689Z,20
2017-04-05T18:26:22.212Z,16
2017-04-05T18:27:44.471Z,16
2017-04-05T18:29:07.077Z,12
2017-04-05T18:30:29.573Z,12
2017-04-05T18:31:51.139Z,4
2017-04-05T18:33:13.647Z,4
2017-04-05T18:34:35.952Z,0